<?xml version='1.0' encoding='UTF-8'?><gpx version="1.1" creator="JPX - https://github.com/jenetics/jpx" xmlns="http://www.topografix.com/GPX/1/1"><trk><trkseg><trkpt lat="43.1455745" lon="12.3167954"><ele>489.0</ele><time>2026-04-24T14:47:14.399Z</time></trkpt><trkpt lat="43.1455736" lon="12.3167055"><ele>489.00000000000006</ele><time>2026-04-24T14:50:45.394Z</time></trkpt><trkpt lat="43.1455252" lon="12.3166477"><ele>489.0</ele><time>2026-04-24T14:50:53.437Z</time></trkpt><trkpt lat="43.1454573" lon="12.3166477"><ele>489.0</ele><time>2026-04-24T14:51:16.427Z</time></trkpt><trkpt lat="43.145443" lon="12.3165614"><ele>489.00000000000006</ele><time>2026-04-24T14:53:06.466Z</time></trkpt><trkpt lat="43.1454778" lon="12.3164887"><ele>489.0</ele><time>2026-04-24T14:53:18.433Z</time></trkpt><trkpt lat="43.1454729" lon="12.316401"><ele>489.0</ele><time>2026-04-24T14:53:24.457Z</time></trkpt><trkpt lat="43.145411" lon="12.3164231"><ele>489.0</ele><time>2026-04-24T14:53:42.367Z</time></trkpt><trkpt lat="43.145395" lon="12.3165127"><ele>489.00000000000006</ele><time>2026-04-24T14:53:54.421Z</time></trkpt><trkpt lat="43.1453828" lon="12.3165986"><ele>489.0</ele><time>2026-04-24T14:54:15.451Z</time></trkpt><trkpt lat="43.1453762" lon="12.3165125"><ele>489.0</ele><time>2026-04-24T14:54:23.431Z</time></trkpt><trkpt lat="43.1453357" lon="12.316436"><ele>489.00000000000006</ele><time>2026-04-24T14:54:35.464Z</time></trkpt><trkpt lat="43.145277" lon="12.3163973"><ele>489.0</ele><time>2026-04-24T14:54:46.465Z</time></trkpt><trkpt lat="43.1452736" lon="12.3163053"><ele>489.0</ele><time>2026-04-24T14:54:56.349Z</time></trkpt><trkpt lat="43.1452358" lon="12.3162352"><ele>487.5714285714286</ele><time>2026-04-24T14:55:08.442Z</time></trkpt><trkpt lat="43.1452017" lon="12.3161549"><ele>486.1428571428572</ele><time>2026-04-24T14:55:24.445Z</time></trkpt><trkpt lat="43.1451844" lon="12.3160608"><ele>484.7142857142857</ele><time>2026-04-24T14:56:00.418Z</time></trkpt><trkpt lat="43.1451007" lon="12.3160002"><ele>483.28571428571433</ele><time>2026-04-24T14:56:37.269Z</time></trkpt><trkpt lat="43.1450792" lon="12.3159136"><ele>481.8571428571429</ele><time>2026-04-24T14:56:48.439Z</time></trkpt><trkpt lat="43.145015" lon="12.3158976"><ele>480.42857142857144</ele><time>2026-04-24T14:56:58.441Z</time></trkpt><trkpt lat="43.1449517" lon="12.3158985"><ele>479.0</ele><time>2026-04-24T14:57:19.453Z</time></trkpt><trkpt lat="43.1448917" lon="12.315931"><ele>480.85714285714283</ele><time>2026-04-24T14:57:33.446Z</time></trkpt><trkpt lat="43.1448374" lon="12.3158811"><ele>482.7142857142858</ele><time>2026-04-24T14:57:50.436Z</time></trkpt><trkpt lat="43.1447719" lon="12.3158817"><ele>484.5714285714286</ele><time>2026-04-24T14:58:05.464Z</time></trkpt><trkpt lat="43.1447029" lon="12.3158664"><ele>486.42857142857144</ele><time>2026-04-24T14:58:38.445Z</time></trkpt><trkpt lat="43.1446347" lon="12.3158485"><ele>488.28571428571433</ele><time>2026-04-24T14:58:53.431Z</time></trkpt><trkpt lat="43.1445713" lon="12.3158294"><ele>490.1428571428572</ele><time>2026-04-24T14:59:01.448Z</time></trkpt><trkpt lat="43.1445211" lon="12.3157757"><ele>492.00000000000006</ele><time>2026-04-24T14:59:19.346Z</time></trkpt><trkpt lat="43.144543" lon="12.3156899"><ele>492.0</ele><time>2026-04-24T14:59:33.447Z</time></trkpt><trkpt lat="43.1446016" lon="12.3156532"><ele>492.0</ele><time>2026-04-24T14:59:49.435Z</time></trkpt><trkpt lat="43.1446938" lon="12.3156527"><ele>492.0</ele><time>2026-04-24T15:00:10.475Z</time></trkpt><trkpt lat="43.1447575" lon="12.315669"><ele>492.0</ele><time>2026-04-24T15:00:40.479Z</time></trkpt><trkpt lat="43.144792" lon="12.3157451"><ele>492.0</ele><time>2026-04-24T15:00:54.411Z</time></trkpt><trkpt lat="43.1448873" lon="12.3157774"><ele>492.0</ele><time>2026-04-24T15:01:35.452Z</time></trkpt><trkpt lat="43.1449088" lon="12.3156915"><ele>490.1428571428572</ele><time>2026-04-24T15:01:55.433Z</time></trkpt><trkpt lat="43.1449736" lon="12.3156655"><ele>488.28571428571433</ele><time>2026-04-24T15:02:34.451Z</time></trkpt><trkpt lat="43.145062" lon="12.3156214"><ele>486.42857142857144</ele><time>2026-04-24T15:03:50.419Z</time></trkpt><trkpt lat="43.1451237" lon="12.3155921"><ele>484.5714285714286</ele><time>2026-04-24T15:04:14.433Z</time></trkpt><trkpt lat="43.1451446" lon="12.3156742"><ele>482.7142857142858</ele><time>2026-04-24T15:05:04.423Z</time></trkpt><trkpt lat="43.1451734" lon="12.3157512"><ele>480.85714285714283</ele><time>2026-04-24T15:05:38.369Z</time></trkpt><trkpt lat="43.1451808" lon="12.3158371"><ele>479.0</ele><time>2026-04-24T15:06:27.422Z</time></trkpt><trkpt lat="43.145248" lon="12.3158402"><ele>479.0</ele><time>2026-04-24T15:07:02.44Z</time></trkpt><trkpt lat="43.1452838" lon="12.315766"><ele>479.0</ele><time>2026-04-24T15:07:26.445Z</time></trkpt><trkpt lat="43.1453182" lon="12.3156916"><ele>479.0</ele><time>2026-04-24T15:07:35.446Z</time></trkpt><trkpt lat="43.1454299" lon="12.3156662"><ele>479.0</ele><time>2026-04-24T15:08:40.333Z</time></trkpt><trkpt lat="43.1454568" lon="12.3157539"><ele>479.0</ele><time>2026-04-24T15:09:04.425Z</time></trkpt><trkpt lat="43.1454483" lon="12.3158438"><ele>479.0</ele><time>2026-04-24T15:10:03.355Z</time></trkpt><trkpt lat="43.1453828" lon="12.3158519"><ele>479.0</ele><time>2026-04-24T15:10:22.335Z</time></trkpt><trkpt lat="43.1453242" lon="12.3158931"><ele>478.99999999999994</ele><time>2026-04-24T15:10:54.457Z</time></trkpt><trkpt lat="43.1452509" lon="12.315936"><ele>479.0</ele><time>2026-04-24T15:11:21.445Z</time></trkpt><trkpt lat="43.145239" lon="12.3160256"><ele>479.0</ele><time>2026-04-24T15:11:36.445Z</time></trkpt><trkpt lat="43.1452763" lon="12.3161093"><ele>479.0</ele><time>2026-04-24T15:12:01.437Z</time></trkpt><trkpt lat="43.1453385" lon="12.3161289"><ele>478.99999999999994</ele><time>2026-04-24T15:13:41.463Z</time></trkpt><trkpt lat="43.1454064" lon="12.3160618"><ele>479.0</ele><time>2026-04-24T15:14:38.448Z</time></trkpt><trkpt lat="43.1455202" lon="12.3160564"><ele>479.0</ele><time>2026-04-24T15:16:14.424Z</time></trkpt><trkpt lat="43.1456366" lon="12.3160459"><ele>479.0</ele><time>2026-04-24T15:17:53.447Z</time></trkpt><trkpt lat="43.1457207" lon="12.316117"><ele>479.0</ele><time>2026-04-24T15:19:05.452Z</time></trkpt><trkpt lat="43.145771" lon="12.3161717"><ele>479.0</ele><time>2026-04-24T15:19:19.441Z</time></trkpt><trkpt lat="43.1456939" lon="12.3162895"><ele>479.0</ele><time>2026-04-24T15:20:47.453Z</time></trkpt><trkpt lat="43.1457329" lon="12.3163665"><ele>480.1428571428571</ele><time>2026-04-24T15:23:20.434Z</time></trkpt><trkpt lat="43.1457315" lon="12.3164585"><ele>481.28571428571433</ele><time>2026-04-24T15:23:40.311Z</time></trkpt><trkpt lat="43.1457941" lon="12.3164397"><ele>482.42857142857144</ele><time>2026-04-24T15:23:55.449Z</time></trkpt><trkpt lat="43.1458483" lon="12.3163823"><ele>483.57142857142856</ele><time>2026-04-24T15:24:15.452Z</time></trkpt><trkpt lat="43.145814" lon="12.3164629"><ele>484.71428571428567</ele><time>2026-04-24T15:24:47.354Z</time></trkpt><trkpt lat="43.1457577" lon="12.3165156"><ele>485.8571428571429</ele><time>2026-04-24T15:24:56.459Z</time></trkpt><trkpt lat="43.1457105" lon="12.3165796"><ele>487.0</ele><time>2026-04-24T15:25:07.399Z</time></trkpt><trkpt lat="43.1456814" lon="12.3166582"><ele>487.28571428571433</ele><time>2026-04-24T15:25:23.458Z</time></trkpt><trkpt lat="43.1456201" lon="12.3166302"><ele>487.57142857142856</ele><time>2026-04-24T15:25:44.437Z</time></trkpt><trkpt lat="43.1456176" lon="12.3167222"><ele>487.8571428571429</ele><time>2026-04-24T15:26:22.404Z</time></trkpt><trkpt lat="43.1455866" lon="12.3168021"><ele>488.14285714285717</ele><time>2026-04-24T15:26:33.451Z</time></trkpt><trkpt lat="43.1455204" lon="12.3167874"><ele>488.42857142857144</ele><time>2026-04-24T15:26:42.45Z</time></trkpt><trkpt lat="43.1454553" lon="12.3167912"><ele>488.7142857142857</ele><time>2026-04-24T15:27:32.439Z</time></trkpt><trkpt lat="43.1454117" lon="12.3168621"><ele>489.0</ele><time>2026-04-24T15:28:48.38Z</time></trkpt><trkpt lat="43.1453536" lon="12.316914"><ele>489.0</ele><time>2026-04-24T15:29:49.358Z</time></trkpt><trkpt lat="43.1453429" lon="12.3170005"><ele>489.00000000000006</ele><time>2026-04-24T15:30:14.424Z</time></trkpt><trkpt lat="43.145321" lon="12.3170841"><ele>489.0</ele><time>2026-04-24T15:30:25.443Z</time></trkpt><trkpt lat="43.145286" lon="12.3170114"><ele>489.0</ele><time>2026-04-24T15:30:45.439Z</time></trkpt><trkpt lat="43.1452421" lon="12.3169348"><ele>489.00000000000006</ele><time>2026-04-24T15:31:06.442Z</time></trkpt><trkpt lat="43.1452097" lon="12.3168535"><ele>489.0</ele><time>2026-04-24T15:31:17.437Z</time></trkpt><trkpt lat="43.1452693" lon="12.3168094"><ele>489.0</ele><time>2026-04-24T15:31:27.45Z</time></trkpt><trkpt lat="43.1452944" lon="12.3167289"><ele>489.0</ele><time>2026-04-24T15:31:52.454Z</time></trkpt><trkpt lat="43.1453353" lon="12.316799"><ele>489.0</ele><time>2026-04-24T15:32:03.452Z</time></trkpt><trkpt lat="43.1454003" lon="12.316798"><ele>489.0</ele><time>2026-04-24T15:32:28.395Z</time></trkpt><trkpt lat="43.1454651" lon="12.3167744"><ele>489.0</ele><time>2026-04-24T15:32:38.435Z</time></trkpt><trkpt lat="43.1455288" lon="12.316756"><ele>489.0</ele><time>2026-04-24T15:32:46.441Z</time></trkpt><trkpt lat="43.1455288" lon="12.316756"><ele>489.0</ele><time>2026-04-24T15:32:46.441Z</time></trkpt><trkpt lat="43.1455288" lon="12.316756"><ele>489.0</ele><time>2026-04-24T15:32:46.441Z</time></trkpt></trkseg></trk></gpx>